Time;durP1;ratioP1;P1;durP2;ratioP2;P2;SDS_P1;SDS_P2;PMS_P1;PMS_P2;Temp;Humidity;BMP_temperature;BMP_pressure;BME280_temperature;BME280_humidity;BME280_pressure;Samples;Min_cycle;Max_cycle;Signal;HPM_P1;HPM_P2
2022/07/09 00:02:09;;;;;;;9.13;5.20;;;;;;;;;;5034047;28;20041;-77
2022/07/09 00:04:36;;;;;;;7.65;5.30;;;;;;;;;;5034065;28;20034;-76
2022/07/09 00:07:04;;;;;;;6.97;5.28;;;;;;;;;;5033971;28;20061;-76
2022/07/09 00:09:32;;;;;;;6.57;5.40;;;;;;;;;;5033922;28;20548;-76
2022/07/09 00:11:59;;;;;;;8.27;5.57;;;;;;;;;;5033919;28;20052;-77
2022/07/09 00:14:27;;;;;;;8.40;5.50;;;;;;;;;;5033898;28;20073;-77
2022/07/09 00:16:54;;;;;;;8.45;5.57;;;;;;;;;;5034089;28;20160;-77
2022/07/09 00:19:22;;;;;;;8.05;5.47;;;;;;;;;;5033939;28;20037;-77
2022/07/09 00:21:49;;;;;;;8.43;5.35;;;;;;;;;;5033832;28;20491;-77
2022/07/09 00:24:17;;;;;;;7.70;5.38;;;;;;;;;;5033551;28;20116;-77
2022/07/09 00:26:44;;;;;;;6.18;5.40;;;;;;;;;;5033485;28;20038;-77
2022/07/09 00:29:12;;;;;;;5.82;5.22;;;;;;;;;;5032253;28;20042;-77
2022/07/09 00:31:39;;;;;;;7.53;5.38;;;;;;;;;;5033488;28;20041;-77
2022/07/09 00:34:07;;;;;;;9.68;6.10;;;;;;;;;;5033490;28;20111;-77
2022/07/09 00:36:34;;;;;;;7.07;5.07;;;;;;;;;;5032060;28;20045;-77
2022/07/09 00:39:02;;;;;;;7.47;5.60;;;;;;;;;;5033463;28;20124;-77
2022/07/09 00:41:29;;;;;;;10.10;8.10;;;;;;;;;;5033244;28;20038;-77
2022/07/09 00:43:57;;;;;;;6.60;5.65;;;;;;;;;;5032507;28;20136;-77
2022/07/09 00:46:24;;;;;;;10.20;6.85;;;;;;;;;;5032185;28;20045;-77
2022/07/09 00:48:52;;;;;;;7.18;5.93;;;;;;;;;;5033228;28;20069;-77
2022/07/09 00:51:20;;;;;;;8.60;6.05;;;;;;;;;;5033558;28;20129;-78
2022/07/09 00:53:49;;;;;;;7.80;6.28;;;;;;;;;;5033082;28;20067;-77
2022/07/09 00:56:17;;;;;;;9.43;7.70;;;;;;;;;;5033188;28;20037;-77
2022/07/09 00:58:45;;;;;;;8.75;6.95;;;;;;;;;;5033048;28;20049;-77
2022/07/09 01:01:13;;;;;;;7.18;6.07;;;;;;;;;;5032828;28;20041;-77
2022/07/09 01:03:41;;;;;;;10.35;7.10;;;;;;;;;;5032973;28;20056;-77
2022/07/09 01:06:09;;;;;;;9.65;6.50;;;;;;;;;;5032935;28;20125;-77
2022/07/09 01:08:36;;;;;;;9.77;7.60;;;;;;;;;;5032630;28;20041;-77
2022/07/09 01:11:04;;;;;;;9.20;7.20;;;;;;;;;;5032727;28;20076;-77
2022/07/09 01:13:31;;;;;;;8.38;6.57;;;;;;;;;;5033133;28;20132;-77
2022/07/09 01:15:59;;;;;;;9.15;6.47;;;;;;;;;;5032843;28;20049;-77
2022/07/09 01:18:26;;;;;;;8.70;6.50;;;;;;;;;;5032584;28;20049;-77
2022/07/09 01:20:54;;;;;;;8.45;6.53;;;;;;;;;;5031782;28;20446;-77
2022/07/09 01:23:21;;;;;;;8.75;6.20;;;;;;;;;;5032742;28;20135;-77
2022/07/09 01:25:49;;;;;;;7.40;5.78;;;;;;;;;;5032748;28;20475;-78
2022/07/09 01:28:16;;;;;;;10.00;6.45;;;;;;;;;;5032752;28;20100;-78
2022/07/09 01:30:44;;;;;;;8.40;5.80;;;;;;;;;;5032443;28;20081;-78
2022/07/09 01:33:12;;;;;;;9.13;6.75;;;;;;;;;;5032472;28;20499;-77
2022/07/09 01:35:40;;;;;;;9.18;6.50;;;;;;;;;;5032562;28;20038;-77
2022/07/09 01:38:07;;;;;;;8.90;6.65;;;;;;;;;;5032685;28;20065;-77
2022/07/09 01:40:35;;;;;;;8.23;7.15;;;;;;;;;;5031202;28;20045;-77
2022/07/09 01:43:02;;;;;;;9.60;6.10;;;;;;;;;;5032436;28;20046;-78
2022/07/09 01:45:30;;;;;;;10.07;6.93;;;;;;;;;;5032569;28;20053;-78
2022/07/09 01:47:57;;;;;;;8.73;6.72;;;;;;;;;;5032219;28;20102;-79
2022/07/09 01:50:25;;;;;;;8.80;7.10;;;;;;;;;;5032313;28;20045;-77
2022/07/09 01:52:52;;;;;;;10.55;7.18;;;;;;;;;;5032229;28;20561;-77
2022/07/09 01:55:20;;;;;;;7.07;6.38;;;;;;;;;;5033354;28;20091;-77
2022/07/09 01:57:47;;;;;;;8.60;7.18;;;;;;;;;;5036286;28;20510;-77
2022/07/09 02:00:15;;;;;;;13.20;8.10;;;;;;;;;;5036170;28;20513;-77
2022/07/09 02:02:42;;;;;;;8.63;7.45;;;;;;;;;;5036480;28;20221;-77
2022/07/09 02:05:10;;;;;;;10.13;8.80;;;;;;;;;;5036495;28;20041;-78
2022/07/09 02:07:37;;;;;;;9.85;7.30;;;;;;;;;;5035122;28;20045;-77
2022/07/09 02:10:05;;;;;;;8.40;7.57;;;;;;;;;;5036220;28;20103;-77
2022/07/09 02:12:33;;;;;;;8.13;7.32;;;;;;;;;;5036390;28;20056;-77
2022/07/09 02:15:00;;;;;;;9.98;7.28;;;;;;;;;;5036160;28;20491;-77
2022/07/09 02:17:28;;;;;;;9.10;7.15;;;;;;;;;;5036065;28;20088;-78
2022/07/09 02:19:55;;;;;;;8.70;7.63;;;;;;;;;;5036053;28;20038;-77
2022/07/09 02:22:23;;;;;;;7.97;7.18;;;;;;;;;;5036064;28;20112;-77
2022/07/09 02:24:50;;;;;;;11.38;7.32;;;;;;;;;;5035881;28;20046;-77
2022/07/09 02:27:17;;;;;;;8.73;6.70;;;;;;;;;;5035978;28;20091;-77
2022/07/09 02:29:45;;;;;;;7.70;6.63;;;;;;;;;;5035795;28;20041;-77
2022/07/09 02:32:12;;;;;;;7.95;7.15;;;;;;;;;;5035664;28;20038;-80
2022/07/09 02:34:40;;;;;;;7.18;6.47;;;;;;;;;;5035756;28;20041;-79
2022/07/09 02:37:08;;;;;;;8.48;7.25;;;;;;;;;;5035726;28;20045;-79
2022/07/09 02:39:35;;;;;;;8.40;7.45;;;;;;;;;;5034650;28;20044;-77
2022/07/09 02:42:03;;;;;;;8.35;7.00;;;;;;;;;;5035743;28;20557;-77
2022/07/09 02:44:30;;;;;;;10.40;6.53;;;;;;;;;;5035640;28;20514;-76
2022/07/09 02:46:59;;;;;;;8.00;7.20;;;;;;;;;;5035634;28;20049;-76
2022/07/09 02:49:26;;;;;;;7.85;6.75;;;;;;;;;;5034636;28;20064;-76
2022/07/09 02:51:57;;;;;;;8.52;7.10;;;;;;;;;;5035528;28;20402;-75
2022/07/09 02:54:25;;;;;;;8.52;7.63;;;;;;;;;;5035663;28;20467;-76
2022/07/09 02:56:52;;;;;;;10.30;7.50;;;;;;;;;;5035201;28;20436;-76
2022/07/09 02:59:20;;;;;;;8.90;7.18;;;;;;;;;;5035330;28;20048;-76
2022/07/09 03:01:48;;;;;;;8.07;6.85;;;;;;;;;;5035552;28;20403;-75
2022/07/09 03:04:15;;;;;;;11.95;9.10;;;;;;;;;;5035221;28;20487;-75
2022/07/09 03:06:43;;;;;;;12.82;8.57;;;;;;;;;;5040809;28;20068;-74
2022/07/09 03:09:11;;;;;;;11.23;7.78;;;;;;;;;;5049238;28;20064;-71
2022/07/09 03:11:38;;;;;;;7.15;6.45;;;;;;;;;;5054913;28;20376;-73
2022/07/09 03:14:06;;;;;;;11.85;8.05;;;;;;;;;;5053957;28;20041;-73
2022/07/09 03:16:33;;;;;;;7.90;7.03;;;;;;;;;;5055119;28;20073;-75
2022/07/09 03:19:01;;;;;;;12.93;8.90;;;;;;;;;;5055062;28;20045;-74
2022/07/09 03:21:28;;;;;;;11.55;6.88;;;;;;;;;;5053864;28;20120;-75
2022/07/09 03:23:56;;;;;;;11.68;8.20;;;;;;;;;;5055203;28;20037;-76
2022/07/09 03:26:23;;;;;;;12.73;8.55;;;;;;;;;;5050189;28;20034;-75
2022/07/09 03:28:50;;;;;;;10.93;8.55;;;;;;;;;;5033397;28;20385;-75
2022/07/09 03:31:18;;;;;;;14.18;10.32;;;;;;;;;;5034360;28;20095;-72
2022/07/09 03:33:46;;;;;;;10.18;8.55;;;;;;;;;;5034660;28;20041;-73
2022/07/09 03:36:20;;;;;;;12.18;8.10;;;;;;;;;;5035023;28;20380;-74
2022/07/09 03:38:47;;;;;;;10.80;8.20;;;;;;;;;;5033874;28;20037;-74
2022/07/09 03:41:15;;;;;;;16.25;11.88;;;;;;;;;;5033433;28;20053;-74
2022/07/09 03:43:42;;;;;;;12.15;8.35;;;;;;;;;;5034622;28;20045;-74
2022/07/09 03:46:09;;;;;;;10.73;8.20;;;;;;;;;;5034559;28;20065;-71
2022/07/09 03:48:37;;;;;;;11.25;8.90;;;;;;;;;;5034494;28;20051;-75
2022/07/09 03:51:05;;;;;;;12.27;7.60;;;;;;;;;;5034716;28;20398;-76
2022/07/09 03:53:32;;;;;;;11.93;9.00;;;;;;;;;;5033073;28;20479;-75
2022/07/09 03:56:00;;;;;;;12.73;11.40;;;;;;;;;;5034600;28;20050;-67
2022/07/09 03:58:27;;;;;;;11.65;8.82;;;;;;;;;;5034614;28;20511;-76
2022/07/09 04:00:55;;;;;;;11.25;8.55;;;;;;;;;;5034395;28;20520;-78
2022/07/09 04:03:22;;;;;;;10.90;7.57;;;;;;;;;;5034291;28;20041;-79
2022/07/09 04:05:50;;;;;;;9.02;7.32;;;;;;;;;;5034530;28;20479;-77
2022/07/09 04:08:17;;;;;;;12.50;7.63;;;;;;;;;;5034281;28;20045;-76
2022/07/09 04:10:45;;;;;;;12.52;9.02;;;;;;;;;;5034257;28;20087;-77
2022/07/09 04:13:12;;;;;;;12.27;9.27;;;;;;;;;;5034327;28;20038;-77
2022/07/09 04:15:41;;;;;;;9.40;7.90;;;;;;;;;;5034179;28;20053;-85
2022/07/09 04:18:08;;;;;;;12.25;8.20;;;;;;;;;;5032916;28;20388;-80
2022/07/09 04:20:36;;;;;;;13.02;8.13;;;;;;;;;;5033208;28;20483;-80
2022/07/09 04:23:03;;;;;;;9.68;7.70;;;;;;;;;;5033645;28;20041;-81
2022/07/09 04:25:31;;;;;;;14.80;7.70;;;;;;;;;;5033620;28;20052;-71
2022/07/09 04:28:01;;;;;;;10.77;7.47;;;;;;;;;;5033774;28;20034;-70
2022/07/09 04:30:29;;;;;;;16.35;13.25;;;;;;;;;;5033626;28;20049;-70
2022/07/09 04:32:57;;;;;;;15.38;10.40;;;;;;;;;;5032427;28;20033;-69
2022/07/09 04:35:25;;;;;;;8.10;7.30;;;;;;;;;;5033559;28;20044;-70
2022/07/09 04:37:52;;;;;;;15.30;12.07;;;;;;;;;;5033478;28;20045;-70
2022/07/09 04:40:19;;;;;;;12.00;10.57;;;;;;;;;;5033434;28;20042;-70
2022/07/09 04:42:47;;;;;;;14.40;10.63;;;;;;;;;;5033348;28;20099;-70
2022/07/09 04:45:15;;;;;;;8.00;6.97;;;;;;;;;;5033327;28;20049;-70
2022/07/09 04:47:42;;;;;;;12.20;7.88;;;;;;;;;;5033483;28;20120;-69
2022/07/09 04:50:10;;;;;;;18.58;13.40;;;;;;;;;;5033260;28;20045;-69
2022/07/09 04:52:38;;;;;;;9.63;8.57;;;;;;;;;;5033186;28;20045;-69
2022/07/09 04:55:10;;;;;;;13.85;11.75;;;;;;;;;;5031960;28;20052;-70
2022/07/09 04:57:37;;;;;;;9.18;6.85;;;;;;;;;;5033418;28;20107;-70
2022/07/09 05:00:05;;;;;;;8.07;6.07;;;;;;;;;;5033067;28;20045;-70
2022/07/09 05:02:33;;;;;;;9.80;7.95;;;;;;;;;;5033423;28;20042;-77
2022/07/09 05:05:00;;;;;;;13.45;6.35;;;;;;;;;;5033337;28;20044;-76
2022/07/09 05:07:28;;;;;;;10.13;6.55;;;;;;;;;;5032948;28;20049;-72
2022/07/09 05:09:55;;;;;;;13.38;9.95;;;;;;;;;;5032880;28;20037;-72
2022/07/09 05:12:23;;;;;;;19.52;14.35;;;;;;;;;;5032924;28;20116;-73
2022/07/09 05:14:50;;;;;;;19.33;13.27;;;;;;;;;;5033281;28;20176;-73
2022/07/09 05:17:18;;;;;;;10.52;7.30;;;;;;;;;;5032510;28;20376;-77
2022/07/09 05:19:46;;;;;;;15.25;11.55;;;;;;;;;;5030107;28;20055;-77
2022/07/09 05:22:13;;;;;;;8.90;6.72;;;;;;;;;;5033012;28;20132;-78
2022/07/09 05:24:41;;;;;;;20.27;12.38;;;;;;;;;;5033026;28;20069;-77
2022/07/09 05:27:09;;;;;;;11.43;6.47;;;;;;;;;;5033197;28;20085;-76
2022/07/09 05:29:37;;;;;;;21.90;11.95;;;;;;;;;;5032543;28;20154;-75
2022/07/09 05:32:05;;;;;;;9.85;4.53;;;;;;;;;;5032372;28;20123;-72
2022/07/09 05:34:32;;;;;;;6.88;4.82;;;;;;;;;;5032902;28;20478;-72
2022/07/09 05:37:00;;;;;;;12.40;6.95;;;;;;;;;;5032641;28;20049;-72
2022/07/09 05:39:27;;;;;;;5.88;4.95;;;;;;;;;;5032910;28;20037;-72
2022/07/09 05:41:55;;;;;;;6.07;4.70;;;;;;;;;;5032586;28;20042;-72
2022/07/09 05:44:22;;;;;;;5.63;4.15;;;;;;;;;;5031185;28;20046;-73
2022/07/09 05:46:51;;;;;;;6.35;4.78;;;;;;;;;;5032442;28;20052;-73
2022/07/09 05:49:18;;;;;;;5.43;3.75;;;;;;;;;;5032471;28;20129;-76
2022/07/09 05:51:46;;;;;;;5.90;5.13;;;;;;;;;;5032262;28;20100;-75
2022/07/09 05:54:14;;;;;;;6.10;4.55;;;;;;;;;;5032519;28;20052;-76
2022/07/09 05:56:41;;;;;;;33.28;29.15;;;;;;;;;;5032469;28;20037;-75
2022/07/09 05:59:09;;;;;;;30.73;25.50;;;;;;;;;;5032577;28;20069;-77
2022/07/09 06:01:39;;;;;;;8.52;4.38;;;;;;;;;;5033111;28;20041;-77
2022/07/09 06:04:07;;;;;;;5.85;3.38;;;;;;;;;;5032280;28;20571;-78
2022/07/09 06:06:35;;;;;;;6.93;4.18;;;;;;;;;;5032528;28;20083;-76
2022/07/09 06:09:03;;;;;;;4.45;3.83;;;;;;;;;;5032413;28;20053;-75
2022/07/09 06:11:30;;;;;;;4.63;3.08;;;;;;;;;;5032193;28;20045;-76
2022/07/09 06:13:58;;;;;;;4.82;3.47;;;;;;;;;;5031983;28;20068;-76
2022/07/09 06:16:25;;;;;;;7.80;4.93;;;;;;;;;;5032219;28;20046;-77
2022/07/09 06:18:53;;;;;;;14.25;10.57;;;;;;;;;;5032041;28;20038;-74
2022/07/09 06:21:21;;;;;;;8.50;4.63;;;;;;;;;;5032200;28;20045;-73
2022/07/09 06:23:48;;;;;;;7.00;4.32;;;;;;;;;;5032245;28;20061;-74
2022/07/09 06:26:16;;;;;;;5.53;3.72;;;;;;;;;;5032150;28;20041;-73
2022/07/09 06:28:43;;;;;;;7.50;5.78;;;;;;;;;;5031925;28;20041;-71
2022/07/09 06:31:11;;;;;;;9.75;8.65;;;;;;;;;;5031959;28;20045;-70
2022/07/09 06:33:38;;;;;;;8.32;5.10;;;;;;;;;;5031389;28;20407;-69
2022/07/09 06:36:06;;;;;;;12.65;8.45;;;;;;;;;;5031756;28;20060;-70
2022/07/09 06:39:44;;;;;;;16.08;11.15;;;;;;;;;;5032096;28;20080;-71
2022/07/09 06:41:21;;;;;;;9.63;6.75;;;;;;;;;;5032835;28;20045;-71
2022/07/09 06:43:49;;;;;;;7.55;5.82;;;;;;;;;;5035617;28;20053;-70
2022/07/09 06:46:16;;;;;;;5.93;4.65;;;;;;;;;;5035859;28;20115;-70
2022/07/09 06:48:44;;;;;;;5.72;5.00;;;;;;;;;;5035682;28;20042;-69
2022/07/09 06:51:11;;;;;;;10.13;8.52;;;;;;;;;;5035333;28;20048;-69
2022/07/09 06:53:38;;;;;;;7.07;5.53;;;;;;;;;;5035465;28;20060;-70
2022/07/09 06:56:06;;;;;;;7.78;5.00;;;;;;;;;;5034976;28;20034;-71
2022/07/09 06:58:34;;;;;;;9.07;7.28;;;;;;;;;;5031888;28;20129;-72
2022/07/09 07:01:02;;;;;;;10.07;6.25;;;;;;;;;;5034733;28;20034;-71
2022/07/09 07:03:30;;;;;;;8.13;5.18;;;;;;;;;;5044491;28;20487;-71
2022/07/09 07:05:57;;;;;;;7.60;6.03;;;;;;;;;;5031498;28;20092;-70
2022/07/09 07:08:25;;;;;;;6.35;5.75;;;;;;;;;;5046512;28;20049;-75
2022/07/09 07:10:52;;;;;;;9.23;5.53;;;;;;;;;;5034434;28;20045;-74
2022/07/09 07:13:19;;;;;;;6.65;4.57;;;;;;;;;;5033936;28;20046;-76
2022/07/09 07:15:49;;;;;;;6.15;4.13;;;;;;;;;;5020621;28;20553;-76
2022/07/09 07:18:16;;;;;;;8.40;4.65;;;;;;;;;;5039570;28;20498;-77
2022/07/09 07:20:45;;;;;;;15.48;12.00;;;;;;;;;;5035303;28;20037;-75
2022/07/09 07:23:12;;;;;;;13.80;10.05;;;;;;;;;;5033835;28;20038;-71
2022/07/09 07:25:40;;;;;;;7.82;4.78;;;;;;;;;;5032523;28;20041;-75
2022/07/09 07:28:07;;;;;;;7.93;6.40;;;;;;;;;;5033675;28;20057;-74
2022/07/09 07:30:36;;;;;;;8.45;5.65;;;;;;;;;;5040427;28;20550;-74
2022/07/09 07:33:03;;;;;;;9.75;7.03;;;;;;;;;;5050190;28;20056;-76
2022/07/09 07:35:31;;;;;;;9.57;7.05;;;;;;;;;;5038986;28;20522;-75
2022/07/09 07:38:01;;;;;;;7.22;4.45;;;;;;;;;;5034539;28;20491;-76
2022/07/09 07:40:28;;;;;;;10.40;6.68;;;;;;;;;;5034339;28;20550;-75
2022/07/09 07:42:56;;;;;;;4.78;3.67;;;;;;;;;;5034011;28;20042;-75
2022/07/09 07:45:24;;;;;;;4.90;4.28;;;;;;;;;;5039863;28;20509;-71
2022/07/09 07:47:52;;;;;;;6.00;5.40;;;;;;;;;;5036343;28;20064;-75
2022/07/09 07:50:21;;;;;;;5.47;4.28;;;;;;;;;;5032991;28;20065;-80
2022/07/09 07:52:48;;;;;;;5.20;3.42;;;;;;;;;;5032425;28;20041;-73
2022/07/09 07:55:16;;;;;;;6.15;3.30;;;;;;;;;;5039679;28;20044;-73
2022/07/09 07:57:43;;;;;;;5.32;3.67;;;;;;;;;;5038873;28;20141;-72
2022/07/09 08:00:11;;;;;;;6.90;4.00;;;;;;;;;;5034627;28;20037;-72
2022/07/09 08:02:39;;;;;;;6.10;3.33;;;;;;;;;;5045414;28;20046;-73
2022/07/09 08:05:07;;;;;;;5.00;3.05;;;;;;;;;;5033800;28;20080;-73
2022/07/09 08:07:34;;;;;;;6.45;2.97;;;;;;;;;;5035380;28;20049;-75
2022/07/09 08:10:02;;;;;;;5.60;3.00;;;;;;;;;;5036102;28;20029;-74
2022/07/09 08:12:29;;;;;;;3.67;2.88;;;;;;;;;;5033585;28;20172;-75
2022/07/09 08:14:57;;;;;;;4.97;3.10;;;;;;;;;;5033702;28;20116;-74
2022/07/09 08:17:24;;;;;;;4.82;2.95;;;;;;;;;;5033750;28;20045;-73
2022/07/09 08:19:52;;;;;;;5.90;3.60;;;;;;;;;;5033631;28;20080;-75
2022/07/09 08:22:20;;;;;;;3.55;2.80;;;;;;;;;;5019914;28;20044;-74
2022/07/09 08:24:47;;;;;;;3.55;3.05;;;;;;;;;;5047349;28;20045;-74
2022/07/09 08:27:15;;;;;;;5.25;2.70;;;;;;;;;;5047830;28;20032;-73
2022/07/09 08:29:43;;;;;;;4.97;2.85;;;;;;;;;;5051699;28;20418;-73
2022/07/09 08:32:10;;;;;;;5.80;2.83;;;;;;;;;;5047369;28;20057;-74
2022/07/09 08:34:38;;;;;;;5.18;3.70;;;;;;;;;;5043332;28;20038;-74
2022/07/09 08:37:05;;;;;;;5.22;3.30;;;;;;;;;;5031937;28;20038;-73
2022/07/09 08:39:33;;;;;;;7.20;6.10;;;;;;;;;;5037770;28;20049;-72
2022/07/09 08:42:00;;;;;;;10.40;6.43;;;;;;;;;;5034511;28;20505;-72
2022/07/09 08:44:31;;;;;;;8.32;4.18;;;;;;;;;;5032749;28;20050;-73
2022/07/09 08:47:01;;;;;;;5.03;4.20;;;;;;;;;;5032892;28;20045;-72
2022/07/09 08:49:31;;;;;;;8.32;3.50;;;;;;;;;;5031887;28;20041;-74
2022/07/09 08:51:59;;;;;;;5.63;3.10;;;;;;;;;;5032755;28;20076;-74
2022/07/09 08:54:28;;;;;;;6.43;3.90;;;;;;;;;;5032700;28;20041;-75
2022/07/09 08:56:55;;;;;;;5.68;3.00;;;;;;;;;;5032902;28;20046;-75
2022/07/09 08:59:23;;;;;;;3.70;2.80;;;;;;;;;;5032983;28;20435;-76
2022/07/09 09:01:50;;;;;;;5.30;2.75;;;;;;;;;;5032743;28;20068;-75
2022/07/09 09:04:19;;;;;;;5.72;2.75;;;;;;;;;;5031920;28;20057;-74
2022/07/09 09:06:46;;;;;;;5.03;2.72;;;;;;;;;;5032876;28;20120;-85
2022/07/09 09:09:18;;;;;;;8.60;3.38;;;;;;;;;;5032853;28;20045;-88
2022/07/09 09:11:48;;;;;;;6.70;4.47;;;;;;;;;;5032745;28;20037;-86
2022/07/09 09:14:25;;;;;;;7.13;2.97;;;;;;;;;;5033110;28;20387;-84
2022/07/09 09:16:52;;;;;;;3.08;2.53;;;;;;;;;;5032710;28;20073;-84
2022/07/09 09:19:22;;;;;;;4.28;3.22;;;;;;;;;;5032806;28;20057;-83
2022/07/09 09:21:53;;;;;;;7.50;4.90;;;;;;;;;;5032505;28;20076;-78
2022/07/09 09:24:25;;;;;;;6.70;3.83;;;;;;;;;;5031147;28;20049;-76
2022/07/09 09:26:57;;;;;;;4.30;3.08;;;;;;;;;;5043265;28;20037;-78
2022/07/09 09:29:24;;;;;;;4.65;3.17;;;;;;;;;;5032876;28;20456;-78
2022/07/09 09:31:52;;;;;;;8.82;3.40;;;;;;;;;;5032347;28;20080;-78
2022/07/09 09:34:20;;;;;;;5.13;3.55;;;;;;;;;;5036771;28;20039;-77
2022/07/09 09:36:50;;;;;;;6.57;2.70;;;;;;;;;;5045010;28;20059;-77
2022/07/09 09:39:19;;;;;;;3.33;2.65;;;;;;;;;;5045841;28;20086;-79
2022/07/09 09:41:47;;;;;;;5.68;3.65;;;;;;;;;;5051127;28;20055;-77
2022/07/09 09:44:16;;;;;;;5.30;3.42;;;;;;;;;;5047049;28;20053;-77
2022/07/09 09:46:44;;;;;;;5.95;3.38;;;;;;;;;;5048753;28;20455;-79
2022/07/09 09:49:14;;;;;;;6.50;3.67;;;;;;;;;;5042092;28;20087;-77
2022/07/09 09:51:51;;;;;;;5.20;2.90;;;;;;;;;;5043023;28;20033;-78
2022/07/09 09:54:20;;;;;;;4.43;3.40;;;;;;;;;;5044873;28;20099;-77
2022/07/09 09:56:48;;;;;;;4.90;3.15;;;;;;;;;;5032215;28;20461;-77
2022/07/09 09:59:16;;;;;;;3.80;2.28;;;;;;;;;;5032038;28;20044;-79
2022/07/09 10:01:45;;;;;;;5.35;2.80;;;;;;;;;;5032252;28;20045;-76
2022/07/09 10:04:14;;;;;;;5.03;2.50;;;;;;;;;;5032130;28;20061;-79
2022/07/09 10:06:42;;;;;;;3.03;2.50;;;;;;;;;;5032048;28;20041;-80
2022/07/09 10:09:12;;;;;;;5.95;2.65;;;;;;;;;;5032339;28;20387;-81
2022/07/09 10:11:39;;;;;;;4.43;2.40;;;;;;;;;;5031924;28;20563;-80
2022/07/09 10:14:07;;;;;;;4.05;2.60;;;;;;;;;;5046263;28;20460;-82
2022/07/09 10:16:36;;;;;;;5.72;2.70;;;;;;;;;;5048462;28;20064;-79
2022/07/09 10:19:04;;;;;;;3.70;3.28;;;;;;;;;;5044346;28;20103;-78
2022/07/09 10:21:33;;;;;;;5.60;3.13;;;;;;;;;;5046715;28;20040;-81
2022/07/09 10:24:00;;;;;;;6.45;2.35;;;;;;;;;;5048416;28;20461;-80
2022/07/09 10:26:44;;;;;;;5.75;2.78;;;;;;;;;;5052309;28;20045;-79
2022/07/09 10:29:22;;;;;;;6.50;3.30;;;;;;;;;;5047841;28;20440;-78
2022/07/09 10:31:50;;;;;;;4.65;2.90;;;;;;;;;;5035614;28;20054;-79
2022/07/09 10:34:30;;;;;;;4.70;2.70;;;;;;;;;;5034352;28;20578;-78
2022/07/09 10:36:58;;;;;;;3.30;3.00;;;;;;;;;;5035453;28;20053;-79
2022/07/09 10:39:25;;;;;;;3.38;2.53;;;;;;;;;;5035386;28;20434;-82
2022/07/09 10:42:00;;;;;;;4.43;2.50;;;;;;;;;;5035630;28;20479;-78
2022/07/09 10:44:29;;;;;;;4.93;2.30;;;;;;;;;;5035369;28;20415;-81
2022/07/09 10:46:57;;;;;;;3.35;2.30;;;;;;;;;;5035403;28;20034;-79
2022/07/09 10:49:28;;;;;;;6.55;2.72;;;;;;;;;;5035393;28;20446;-84
2022/07/09 10:51:57;;;;;;;5.45;2.45;;;;;;;;;;5035326;28;20113;-79
2022/07/09 10:54:33;;;;;;;3.58;2.50;;;;;;;;;;5035618;28;20563;-79
2022/07/09 10:57:00;;;;;;;2.63;2.20;;;;;;;;;;5034982;28;20037;-80
2022/07/09 10:59:28;;;;;;;4.88;2.88;;;;;;;;;;5035133;28;20500;-81
2022/07/09 11:01:55;;;;;;;3.60;2.60;;;;;;;;;;5035253;28;20045;-80
2022/07/09 11:04:24;;;;;;;2.53;2.33;;;;;;;;;;5034017;28;20080;-79
2022/07/09 11:06:58;;;;;;;5.20;2.30;;;;;;;;;;5034860;28;20038;-81
2022/07/09 11:09:30;;;;;;;5.50;2.80;;;;;;;;;;5035104;28;20511;-82
2022/07/09 11:11:58;;;;;;;3.80;2.65;;;;;;;;;;5035055;28;20069;-80
2022/07/09 11:14:25;;;;;;;4.28;2.60;;;;;;;;;;5034593;28;20471;-78
2022/07/09 11:16:54;;;;;;;3.55;2.80;;;;;;;;;;5046232;28;20064;-81
2022/07/09 11:19:30;;;;;;;4.35;2.50;;;;;;;;;;5050538;28;20584;-83
2022/07/09 11:22:02;;;;;;;3.53;2.50;;;;;;;;;;5053854;28;20490;-80
2022/07/09 11:24:32;;;;;;;6.00;2.70;;;;;;;;;;5053673;28;20042;-83
2022/07/09 11:27:06;;;;;;;3.33;2.40;;;;;;;;;;5045127;28;20289;-81
2022/07/09 11:29:34;;;;;;;4.47;2.63;;;;;;;;;;5034369;28;20105;-81
2022/07/09 11:32:01;;;;;;;4.45;2.95;;;;;;;;;;5041311;28;20067;-81
2022/07/09 11:34:29;;;;;;;4.53;2.58;;;;;;;;;;5045561;28;20490;-83
2022/07/09 11:36:58;;;;;;;4.68;3.58;;;;;;;;;;5035036;28;20036;-77
2022/07/09 11:39:27;;;;;;;5.18;3.50;;;;;;;;;;5040902;28;20068;-79
2022/07/09 11:41:55;;;;;;;2.67;2.45;;;;;;;;;;5033218;28;20042;-81
2022/07/09 11:44:30;;;;;;;4.30;2.90;;;;;;;;;;5039432;28;20490;-82
2022/07/09 11:47:04;;;;;;;3.70;3.40;;;;;;;;;;5034583;28;20513;-80
2022/07/09 11:49:38;;;;;;;3.75;2.70;;;;;;;;;;5034182;28;20487;-80
2022/07/09 11:52:17;;;;;;;2.70;2.50;;;;;;;;;;5033654;28;20034;-77
2022/07/09 11:55:03;;;;;;;6.20;3.35;;;;;;;;;;5039950;28;20475;-78
2022/07/09 11:57:32;;;;;;;4.07;2.80;;;;;;;;;;5037313;28;20037;-81
2022/07/09 12:00:00;;;;;;;3.88;2.90;;;;;;;;;;5044737;28;20483;-78
2022/07/09 12:02:32;;;;;;;3.80;2.55;;;;;;;;;;5051172;28;20474;-81
2022/07/09 12:05:00;;;;;;;4.90;3.05;;;;;;;;;;5044184;28;20044;-84
2022/07/09 12:07:28;;;;;;;6.70;3.00;;;;;;;;;;5033933;28;20387;-80
2022/07/09 12:09:59;;;;;;;4.47;2.85;;;;;;;;;;5033800;28;20037;-79
2022/07/09 12:12:27;;;;;;;3.78;3.15;;;;;;;;;;5033723;28;20092;-78
2022/07/09 12:14:55;;;;;;;3.55;2.63;;;;;;;;;;5032518;28;20037;-80
2022/07/09 12:17:26;;;;;;;4.53;2.92;;;;;;;;;;5042819;28;20049;-79
2022/07/09 12:19:55;;;;;;;4.10;2.70;;;;;;;;;;5038788;28;20045;-75
2022/07/09 12:22:25;;;;;;;3.47;2.60;;;;;;;;;;5033459;28;20045;-77
2022/07/09 12:24:54;;;;;;;4.07;3.25;;;;;;;;;;5033333;28;20045;-69
2022/07/09 12:27:21;;;;;;;4.22;2.63;;;;;;;;;;5034175;28;20039;-76
2022/07/09 12:29:50;;;;;;;4.47;3.13;;;;;;;;;;5033480;28;20092;-76
2022/07/09 12:32:19;;;;;;;3.97;2.70;;;;;;;;;;5041281;28;20437;-75
2022/07/09 12:34:46;;;;;;;5.55;2.92;;;;;;;;;;5049760;28;20094;-77
2022/07/09 12:37:14;;;;;;;5.78;3.70;;;;;;;;;;5041008;28;20052;-76
2022/07/09 12:39:41;;;;;;;4.78;3.30;;;;;;;;;;5032911;28;20124;-77
2022/07/09 12:42:17;;;;;;;3.45;3.00;;;;;;;;;;5033017;28;20116;-77
2022/07/09 12:44:45;;;;;;;6.43;3.80;;;;;;;;;;5033000;28;20045;-79
2022/07/09 12:47:13;;;;;;;4.68;3.92;;;;;;;;;;5032972;28;20120;-78
2022/07/09 12:49:40;;;;;;;4.78;3.10;;;;;;;;;;5033007;28;20045;-77
2022/07/09 12:52:08;;;;;;;5.20;3.95;;;;;;;;;;5044938;28;20557;-76
2022/07/09 12:54:36;;;;;;;3.97;3.55;;;;;;;;;;5032610;28;20045;-74
2022/07/09 12:57:03;;;;;;;5.05;3.08;;;;;;;;;;5038798;28;20047;-73
2022/07/09 12:59:35;;;;;;;4.13;2.97;;;;;;;;;;5033090;28;20064;-75
2022/07/09 13:02:04;;;;;;;5.93;3.30;;;;;;;;;;5032722;28;20045;-75
2022/07/09 13:04:31;;;;;;;5.25;3.20;;;;;;;;;;5032799;28;20546;-74
2022/07/09 13:06:59;;;;;;;5.60;3.30;;;;;;;;;;5018989;28;20041;-73
2022/07/09 13:09:26;;;;;;;4.47;2.90;;;;;;;;;;5032875;28;20041;-73
2022/07/09 13:11:54;;;;;;;3.90;3.38;;;;;;;;;;5031046;28;20064;-75
2022/07/09 13:14:21;;;;;;;4.78;3.33;;;;;;;;;;5032794;28;20045;-73
2022/07/09 13:16:49;;;;;;;4.78;2.78;;;;;;;;;;5032522;28;20068;-73
2022/07/09 13:19:36;;;;;;;3.92;3.30;;;;;;;;;;5032619;28;20045;-73
2022/07/09 13:22:07;;;;;;;3.90;3.00;;;;;;;;;;5027863;28;20137;-73
2022/07/09 13:24:34;;;;;;;3.63;2.65;;;;;;;;;;5024190;28;20041;-74
2022/07/09 13:27:07;;;;;;;4.57;3.00;;;;;;;;;;5031945;28;20041;-73
2022/07/09 13:29:35;;;;;;;3.17;2.70;;;;;;;;;;5032332;28;20065;-74
2022/07/09 13:32:02;;;;;;;4.22;2.63;;;;;;;;;;5032433;28;20044;-73
2022/07/09 13:34:30;;;;;;;3.47;2.90;;;;;;;;;;5032323;28;20441;-75
2022/07/09 13:36:57;;;;;;;3.28;2.97;;;;;;;;;;5031311;28;20064;-73
2022/07/09 13:39:25;;;;;;;2.90;2.60;;;;;;;;;;5032329;28;20041;-74
2022/07/09 13:41:53;;;;;;;4.18;2.83;;;;;;;;;;5032024;28;20505;-74
2022/07/09 13:44:20;;;;;;;4.78;3.00;;;;;;;;;;5032055;28;20053;-73
2022/07/09 13:46:48;;;;;;;4.70;2.95;;;;;;;;;;5032049;28;20124;-77
2022/07/09 13:49:15;;;;;;;5.22;3.05;;;;;;;;;;5032307;28;20116;-73
2022/07/09 13:51:49;;;;;;;3.87;3.07;;;;;;;;;;5038289;28;20120;-78
2022/07/09 13:54:17;;;;;;;4.95;3.00;;;;;;;;;;5038743;28;20045;-81
2022/07/09 13:56:44;;;;;;;6.68;3.10;;;;;;;;;;5038684;28;20042;-81
2022/07/09 13:59:12;;;;;;;3.25;2.80;;;;;;;;;;5038649;28;20045;-72
2022/07/09 14:01:39;;;;;;;3.25;2.65;;;;;;;;;;5038617;28;20045;-73
2022/07/09 14:04:07;;;;;;;3.03;2.65;;;;;;;;;;5038319;28;20060;-73
2022/07/09 14:06:34;;;;;;;4.50;3.20;;;;;;;;;;5037257;28;20091;-71
2022/07/09 14:09:13;;;;;;;4.55;3.10;;;;;;;;;;5037469;28;20457;-72
2022/07/09 14:11:41;;;;;;;5.75;2.72;;;;;;;;;;5037663;28;20074;-72
2022/07/09 14:14:08;;;;;;;4.65;2.78;;;;;;;;;;5037317;28;20037;-72
2022/07/09 14:16:36;;;;;;;3.15;2.83;;;;;;;;;;5037851;28;20052;-71
2022/07/09 14:19:03;;;;;;;3.90;3.05;;;;;;;;;;5037515;28;20069;-71
2022/07/09 14:21:31;;;;;;;3.28;2.75;;;;;;;;;;5037665;28;20048;-71
2022/07/09 14:23:58;;;;;;;4.88;2.75;;;;;;;;;;5037356;28;20042;-71
2022/07/09 14:26:26;;;;;;;4.97;3.47;;;;;;;;;;5037552;28;20081;-72
2022/07/09 14:28:53;;;;;;;5.15;2.70;;;;;;;;;;5048826;28;20029;-71
2022/07/09 14:31:21;;;;;;;6.68;3.72;;;;;;;;;;5050327;28;20088;-72
2022/07/09 14:33:49;;;;;;;4.28;3.38;;;;;;;;;;5037117;28;20053;-72
2022/07/09 14:36:16;;;;;;;5.20;4.63;;;;;;;;;;5038187;28;20036;-71
2022/07/09 14:38:44;;;;;;;6.00;4.15;;;;;;;;;;5038342;28;20048;-72
2022/07/09 14:41:11;;;;;;;16.00;13.65;;;;;;;;;;5038104;28;20041;-71
2022/07/09 14:43:40;;;;;;;5.50;3.55;;;;;;;;;;5038009;28;20063;-71
2022/07/09 14:46:08;;;;;;;3.40;2.70;;;;;;;;;;5039377;28;20121;-72
2022/07/09 14:48:36;;;;;;;4.18;3.17;;;;;;;;;;5051837;28;20116;-72